パース の空港の天気 - METARとTAF

パース空港 ( YPPH / PER ) - オーストラリア 西オーストラリア州パース
飛行場実況気象(Metar)
観測時間10/18 11:30 AWST (10/18 03:30 UTC)
風向・風速西 9m/s 瞬間風速15m/s
視程6000m
天気現象弱いしゅう雨
全天の4割程度の雲 雲底高度 1220m
全天の8割程度の雲 雲底高度 1830m
全天を覆う雲 雲底高度 2070m
気温12℃
湿度82%
気圧1008hPa
METARYPPH 180330Z 27018G29KT 6000 -SHRA SCT040 BKN060 OVC068 12/09 Q1008 INTER 0345/0630 29020G30KT 3000 SHRA BKN010
過去の天気等 Google飛行場航空写真 Wunderground天気予報

過去48時間のMETAR

飛行場予報(TAF)
発表時間: 10/18 07:14 AWST (10/17 23:14 UTC)
予報対象時間: 18日8時 AWST ~ 19日14時 AWST
風向・風速西 9m/s 瞬間風速 14m/s
視程10km以上
天気現象弱いしゅう雨
全天の4割程度の雲 雲底高度 910m
18日18時 AWST から
風向・風速南西 6m/s
視程10km以上
天気現象弱いしゅう雨
全天の4割程度の雲 雲底高度 910m
TAF YPPH 172314Z 1800/1906 27018G28KT 9999 -SHRA SCT030
FM181000 23012KT 9999 -SHRA SCT030 INTER 1800/1815 28025G35KT 3000 SHRA SCT010
PROB30 INTER 1802/1809 26030G40KT 2000 TSRA SCT010 FEW030CB